KIIB

Independence Municipal Airport

Independence, Iowa, USA
METAR KIIB 141335Z AUTO 15005KT 7SM SCT070 22/19 A2998 RMK AO2 T02200190
Observed Flight Rules
Aug-14 @ 13:35 UTC (8 minutes ago) Visual Flight Rules
Wind Visibility Clouds
150° at 5 knots 7 miles
  • Scattered at 7,000' AGL
Temperatures Readings
Current 22°C / 72°F
Dewpoint 19°C / 66°F
Humidity 83%
Altimeter 29.98" Hg
Pressure 1015 hPa
Elevation 298
METAR KIIB 141335Z AUTO 15005KT 7SM SCT070 22/19 A2998 RMK AO2 T02200190
Observed Flight Rules
Aug-14 @ 13:35 UTC
(8 minutes ago)
VFR
Wind Visibility
150° at 5 knots 7 miles
Clouds
  • Scattered at 7,000' AGL
Temperature Dewpoint
22°C / 72°F 19°C / 66°F
Humidity Altimeter Pressure
83% 29.98" Hg 1015 hPa